Terminal Aerodrome Forecast
Issued by NWS Wilmington, OH

Current Version | Previous Version | Graphics & Text | Print | Product List | Glossary On
Versions: 1 2 3 4 5 6 7 8 9 10 11 12 13 14 15 16 17 18
000
FTUS41 KILN 011700
TAFDAY
TAF
KDAY 011732Z 0118/0218 05004KT P6SM VCTS BKN060CB
     FM020100 VRB04KT P6SM VCSH SCT060 BKN100
     FM021400 VRB04KT P6SM -SHRA VCTS BKN040CB=

USA.gov is the U.S. government's official web portal to all federal, state and local government web resources and services.